Flight Track Log - Related Links

Times and Time Zones

All times are in EST time to prevent confusion due to time zone crossing. See the SWA2236 flight status page for this flight to view local times or setup timezone preferences in your user account.

Time Position Orientation Groundspeed Altitude Reporting Facility
EST Latitude Longitude Course Direction KTS MPH feet Rate Location/Type
Sat 10:28:11 AM 36.0833 -86.7000 219° Southwest 149 171 2,400  Level Nashville TRACON
Sat 10:29:11 AM 36.1000 -86.7667 287° West 218 251 4,000 2,100 Climbing Nashville TRACON
Sat 10:30:11 AM 36.1167 -86.8500 284° West 266 306 6,600 3,252 Climbing Nashville TRACON
Sat 10:31:22 AM 36.1633 -86.9489 300° West 265 305 11,100 2,932 Climbing Memphis Center
Sat 10:32:24 AM 36.2022 -87.0497 296° West 319 367 13,100 2,323 Climbing Memphis Center
Sat 10:33:00 AM 36.1226 -87.4640 270° West  Level Estimated
Sat 10:33:26 AM 36.2458 -87.1600 296° West 345 397 15,900  Level Memphis Center
Sat 10:34:28 AM 36.2814 -87.2806 290° West 363 418 18,400 2,468 Climbing Memphis Center
Sat 10:35:30 AM 36.3011 -87.4122 281° West 380 437 21,000 2,371 Climbing Memphis Center
Sat 10:36:32 AM 36.3161 -87.5461 278° West 387 445 23,300 1,960 Climbing Memphis Center
Sat 10:38:00 AM 36.3000 -87.7392 270° West  Level FlightAware Approximate
Sat 10:39:38 AM 36.3097 -87.9639 270° West 402 463 29,100  Level Memphis Center
Sat 10:40:39 AM 36.3144 -88.1236 272° West 396 456 31,600 2,000 Climbing Memphis Center
Sat 10:41:41 AM 36.3167 -88.2400 271° West 388 447 33,200 1,500 Climbing Memphis Center
Sat 10:42:43 AM 36.3197 -88.3700 272° West 381 438 34,700 1,500 Climbing Memphis Center
Sat 10:43:45 AM 36.3231 -88.5272 272° West 380 437 36,300 1,113 Climbing Memphis Center
Sat 10:44:47 AM 36.3256 -88.6553 271° West 375 432 37,000 339 Climbing Memphis Center
Sat 10:45:49 AM 36.3278 -88.7806 271° West 366 421 37,000  Level Memphis Center
Sat 10:46:51 AM 36.3303 -88.9069 271° West 366 421 37,000  Level Memphis Center
Sat 10:47:53 AM 36.3322 -89.0325 271° West 364 419 37,000  Level Memphis Center
Sat 10:48:54 AM 36.3339 -89.1600 271° West 367 422 37,000  Level Memphis Center
Sat 10:49:56 AM 36.3367 -89.2972 271° West 367 422 37,000  Level Memphis Center
Sat 10:50:58 AM 36.3386 -89.4250 271° West 369 425 37,000  Level Memphis Center
Sat 10:52:00 AM 36.3392 -89.5508 270° West 369 425 37,000 194 Level Memphis Center
Sat 10:53:02 AM 36.3411 -89.6747 271° West 362 417 37,400 341 Climbing Memphis Center
Sat 10:54:56 AM 36.3431 -89.9231 271° West 361 415 38,000 205 Climbing Kansas City Center
Sat 10:55:58 AM 36.3444 -90.0483 271° West 362 417 38,000  Level Kansas City Center
Sat 10:57:00 AM 36.3447 -90.1736 270° West 363 418 38,000  Level Kansas City Center
Sat 10:58:02 AM 36.3447 -90.2981 270° West 362 417 38,000  Level Kansas City Center
Sat 10:59:04 AM 36.3475 -90.4203 272° West 358 412 38,000  Level Kansas City Center
Sat 11:00:06 AM 36.3475 -90.5683 270° West 357 411 38,000  Level Kansas City Center
Sat 11:01:17 AM 36.3483 -90.7161 270° West 357 411 38,000  Level Memphis Center
Sat 11:02:19 AM 36.3489 -90.8406 270° West 360 414 38,000  Level Memphis Center
Sat 11:03:21 AM 36.3483 -90.9636 270° West 358 412 38,000  Level Memphis Center
Sat 11:04:23 AM 36.3489 -91.0889 270° West 362 417 38,000  Level Memphis Center
Sat 11:05:24 AM 36.3489 -91.2142 270° West 362 417 38,000  Level Memphis Center
Sat 11:06:26 AM 36.3494 -91.3394 270° West 364 419 38,000  Level Memphis Center
Sat 11:07:28 AM 36.3481 -91.4656 269° West 365 420 38,000  Level Memphis Center
Sat 11:08:30 AM 36.3483 -91.6175 270° West 367 422 38,000  Level Memphis Center
Sat 11:09:31 AM 36.3472 -91.7464 269° West 371 427 38,000  Level Memphis Center
Sat 11:10:33 AM 36.3453 -91.8581 269° West 369 425 38,000  Level Memphis Center
Sat 11:11:35 AM 36.3444 -91.9833 270° West 367 422 38,000  Level Memphis Center
Sat 11:12:37 AM 36.3428 -92.1342 269° West 366 421 38,000  Level Memphis Center
Sat 11:13:39 AM 36.3422 -92.2597 270° West 366 421 38,000  Level Memphis Center
Sat 11:14:41 AM 36.3403 -92.3844 269° West 365 420 38,000  Level Memphis Center
Sat 11:15:42 AM 36.3394 -92.5092 270° West 364 419 38,000  Level Memphis Center
Sat 11:16:44 AM 36.3381 -92.6325 269° West 363 418 38,000  Level Memphis Center
Sat 11:17:46 AM 36.3358 -92.7581 269° West 364 419 38,000  Level Memphis Center
Sat 11:18:48 AM 36.3347 -92.9106 270° West 368 423 38,000  Level Memphis Center
Sat 11:19:49 AM 36.3322 -93.0383 269° West 372 428 38,000  Level Memphis Center
Sat 11:20:51 AM 36.3294 -93.1639 268° West 369 425 38,000  Level Memphis Center
Sat 11:21:53 AM 36.3272 -93.2928 269° West 374 430 38,000  Level Memphis Center
Sat 11:22:54 AM 36.3253 -93.4183 269° West 370 426 38,000  Level Memphis Center
Sat 11:23:56 AM 36.3219 -93.5453 268° West 370 426 38,000  Level Memphis Center
Sat 11:24:58 AM 36.3183 -93.6967 268° West 368 423 38,000  Level Memphis Center
Sat 11:25:59 AM 36.3156 -93.8111 268° West 368 423 38,000  Level Memphis Center
Sat 11:27:01 AM 36.3122 -93.9383 268° West 369 425 38,000  Level Memphis Center
Sat 11:28:02 AM 36.3097 -94.0661 269° West 370 426 38,000  Level Memphis Center
Sat 11:29:04 AM 36.3058 -94.2200 268° West 372 428 38,000  Level Memphis Center
Sat 11:30:06 AM 36.3019 -94.3492 268° West 374 430 38,000  Level Memphis Center
Sat 11:31:07 AM 36.2978 -94.4783 268° West 374 430 38,000  Level Memphis Center
Sat 11:32:09 AM 36.2931 -94.6067 267° West 373 429 38,000  Level Memphis Center
Sat 11:33:08 AM 36.2908 -94.7342 269° West 372 428 38,000  Level Kansas City Center
Sat 11:34:10 AM 36.2875 -94.8622 268° West 371 427 38,000  Level Kansas City Center
Sat 11:35:12 AM 36.2833 -94.9908 268° West 371 427 38,000  Level Kansas City Center
Sat 11:36:14 AM 36.2778 -95.1331 267° West 372 428 38,000  Level Kansas City Center
Sat 11:37:16 AM 36.2728 -95.2614 267° West 373 429 38,000  Level Kansas City Center
Sat 11:38:18 AM 36.2667 -95.3919 267° West 379 436 38,000  Level Kansas City Center
Sat 11:39:20 AM 36.2636 -95.5222 268° West 380 437 38,000  Level Kansas City Center
Sat 11:40:22 AM 36.2589 -95.6497 267° West 374 430 38,000  Level Kansas City Center
Sat 11:41:24 AM 36.2528 -95.8025 90° East 375 432 38,000  Level Kansas City Center
Sat 11:41:24 AM 36.2528 -95.8025 267° West 375 432 38,000  Level Kansas City Center
Sat 11:42:26 AM 36.2478 -95.9314 267° West 375 432 38,000  Level Kansas City Center
Sat 11:42:26 AM 36.2478 -95.9314 267° West 375 432 38,000  Level Kansas City Center
Sat 11:43:28 AM 36.2419 -96.0611 267° West 375 432 38,000  Level Kansas City Center
Sat 11:43:28 AM 36.2419 -96.0611 267° West 375 432 38,000  Level Kansas City Center
Sat 11:44:30 AM 36.2364 -96.1903 267° West 375 432 38,000  Level Kansas City Center
Sat 11:44:30 AM 36.2364 -96.1903 267° West 375 432 38,000  Level Kansas City Center
Sat 11:45:32 AM 36.2322 -96.3189 268° West 373 429 38,000  Level Kansas City Center
Sat 11:45:32 AM 36.2322 -96.3189 268° West 373 429 38,000  Level Kansas City Center
Sat 11:47:00 AM 36.2280 -96.5009 268° West  Level FlightAware Approximate
Sat 11:54:00 AM 36.2041 -97.3692 268° West  Level FlightAware Approximate
Sat 11:55:00 AM 36.2002 -97.4931 268° West  Level FlightAware Approximate
Sat 11:56:00 AM 36.1937 -97.6172 266° West  Level FlightAware Approximate
Sat 11:57:00 AM 36.1870 -97.7410 266° West  Level FlightAware Approximate
Sat 11:58:00 AM 36.1802 -97.8648 266° West  Level FlightAware Approximate
Sat 11:59:00 AM 36.1732 -97.9885 266° West  Level FlightAware Approximate
Sat 12:00:00 PM 36.1661 -98.1122 266° West  Level FlightAware Approximate
Sat 12:01:00 PM 36.1589 -98.2359 266° West  Level FlightAware Approximate
Sat 12:02:00 PM 36.1515 -98.3596 266° West  Level FlightAware Approximate
Sat 12:03:00 PM 36.1440 -98.4833 266° West  Level FlightAware Approximate
Sat 12:04:00 PM 36.1364 -98.6069 266° West  Level FlightAware Approximate
Sat 12:05:00 PM 36.1287 -98.7305 266° West  Level FlightAware Approximate
Sat 12:06:00 PM 36.1208 -98.8541 266° West  Level FlightAware Approximate
Sat 12:07:00 PM 36.1128 -98.9777 265° West  Level FlightAware Approximate
Sat 12:08:00 PM 36.1047 -99.1012 265° West  Level FlightAware Approximate
Sat 12:09:00 PM 36.0964 -99.2247 265° West  Level FlightAware Approximate
Sat 12:10:00 PM 36.0880 -99.3482 265° West  Level FlightAware Approximate
Sat 12:11:00 PM 36.0792 -99.4716 265° West  Level FlightAware Approximate
Sat 12:12:00 PM 36.0699 -99.5949 265° West  Level FlightAware Approximate
Sat 12:13:00 PM 36.0604 -99.7183 265° West  Level FlightAware Approximate
Sat 12:14:00 PM 36.0507 -99.8416 265° West  Level FlightAware Approximate
Sat 12:15:00 PM 36.0410 -99.9648 264° West  Level FlightAware Approximate
Sat 12:16:00 PM 36.0311 -100.0880 264° West  Level FlightAware Approximate
Sat 12:17:00 PM 36.0211 -100.2112 264° West  Level FlightAware Approximate
Sat 12:18:00 PM 36.0110 -100.3344 264° West  Level FlightAware Approximate
Sat 12:19:00 PM 36.0008 -100.4575 264° West  Level FlightAware Approximate
Sat 12:20:00 PM 35.9913 -100.5807 265° West  Level FlightAware Approximate
Sat 12:21:00 PM 35.9817 -100.7039 265° West  Level FlightAware Approximate
Sat 12:22:00 PM 35.9720 -100.8271 264° West  Level FlightAware Approximate
Sat 12:23:00 PM 35.9622 -100.9502 264° West  Level FlightAware Approximate
Sat 12:24:00 PM 35.9523 -101.0733 264° West  Level FlightAware Approximate
Sat 12:25:00 PM 35.9422 -101.1963 264° West  Level FlightAware Approximate
Sat 12:26:00 PM 35.9321 -101.3194 264° West  Level FlightAware Approximate
Sat 12:27:00 PM 35.9217 -101.4424 264° West  Level FlightAware Approximate
Sat 12:28:00 PM 35.9113 -101.5653 264° West  Level FlightAware Approximate
Sat 12:29:00 PM 35.9008 -101.6883 264° West  Level FlightAware Approximate
Sat 12:30:00 PM 35.8901 -101.8112 264° West  Level FlightAware Approximate
Sat 12:31:00 PM 35.8793 -101.9340 264° West  Level FlightAware Approximate
Sat 12:32:00 PM 35.8683 -102.0569 264° West  Level FlightAware Approximate
Sat 12:33:00 PM 35.8573 -102.1797 264° West  Level FlightAware Approximate
Sat 12:34:00 PM 35.8461 -102.3024 264° West  Level FlightAware Approximate
Sat 12:35:00 PM 35.8348 -102.4252 264° West  Level FlightAware Approximate
Sat 12:36:00 PM 35.8233 -102.5479 263° West  Level FlightAware Approximate
Sat 12:37:00 PM 35.8118 -102.6705 263° West  Level FlightAware Approximate
Sat 12:38:00 PM 35.8001 -102.7931 263° West  Level FlightAware Approximate
Sat 12:39:00 PM 35.7883 -102.9157 263° West  Level FlightAware Approximate
Sat 12:40:00 PM 35.7763 -103.0383 263° West  Level FlightAware Approximate
Sat 12:41:00 PM 35.7642 -103.1608 263° West  Level FlightAware Approximate
Sat 12:42:00 PM 35.7520 -103.2833 263° West  Level FlightAware Approximate
Sat 12:43:00 PM 35.7397 -103.4057 263° West  Level FlightAware Approximate
Sat 12:44:00 PM 35.7272 -103.5281 263° West  Level FlightAware Approximate
Sat 12:45:00 PM 35.7146 -103.6505 263° West  Level FlightAware Approximate
Sat 12:46:00 PM 35.7019 -103.7728 263° West  Level FlightAware Approximate
Sat 12:47:00 PM 35.6891 -103.8951 263° West  Level FlightAware Approximate
Sat 12:48:00 PM 35.6761 -104.0173 263° West  Level FlightAware Approximate
Sat 12:49:00 PM 35.6630 -104.1395 263° West  Level FlightAware Approximate
Sat 12:50:00 PM 35.6498 -104.2617 262° West  Level FlightAware Approximate
Sat 12:51:00 PM 35.6365 -104.3838 262° West  Level FlightAware Approximate
Sat 12:52:00 PM 35.6230 -104.5059 262° West  Level FlightAware Approximate
Sat 12:53:00 PM 35.6095 -104.6279 262° West  Level FlightAware Approximate
Sat 12:54:00 PM 35.5958 -104.7499 262° West  Level FlightAware Approximate
Sat 12:55:00 PM 35.5820 -104.8718 262° West  Level FlightAware Approximate
Sat 12:56:00 PM 35.5680 -104.9938 262° West  Level FlightAware Approximate
Sat 12:57:00 PM 35.5539 -105.1156 262° West  Level FlightAware Approximate
Sat 12:58:00 PM 35.5397 -105.2374 262° West  Level FlightAware Approximate
Sat 12:59:00 PM 35.5254 -105.3592 262° West  Level FlightAware Approximate
Sat 01:00:00 PM 35.5113 -105.4810 262° West  Level FlightAware Approximate
Sat 01:01:00 PM 35.4975 -105.6028 262° West  Level FlightAware Approximate
Sat 01:02:00 PM 35.4836 -105.7246 262° West  Level FlightAware Approximate
Sat 01:03:00 PM 35.4695 -105.8464 262° West  Level FlightAware Approximate
Sat 01:04:00 PM 35.4553 -105.9681 262° West  Level FlightAware Approximate
Sat 01:05:00 PM 35.4411 -106.0897 262° West  Level FlightAware Approximate
Sat 01:06:00 PM 35.4266 -106.2113 262° West  Level FlightAware Approximate
Sat 01:07:00 PM 35.4121 -106.3329 262° West  Level FlightAware Approximate
Sat 01:08:00 PM 35.3972 -106.4544 261° West  Level FlightAware Approximate
Sat 01:09:00 PM 35.3812 -106.5757 261° West  Level FlightAware Approximate
Sat 01:10:00 PM 35.3651 -106.6969 261° West  Level FlightAware Approximate
Sat 01:11:00 PM 35.3489 -106.8180 261° West  Level FlightAware Approximate
Sat 01:12:00 PM 35.3325 -106.9391 260° West  Level FlightAware Approximate
Sat 01:13:00 PM 35.3167 -107.0601 270° West  Level FlightAware Approximate
Sat 01:14:00 PM 35.3050 -107.1813 257° West  Level FlightAware Approximate
Sat 01:15:00 PM 35.2832 -107.3010 260° West  Level FlightAware Approximate
Sat 01:16:00 PM 35.2663 -107.4219 260° West  Level FlightAware Approximate
Sat 01:17:00 PM 35.2492 -107.5427 260° West  Level FlightAware Approximate
Sat 01:18:00 PM 35.2320 -107.6635 260° West  Level FlightAware Approximate
Sat 01:19:00 PM 35.2147 -107.7843 260° West  Level FlightAware Approximate
Sat 01:20:00 PM 35.1973 -107.9049 260° West  Level FlightAware Approximate
Sat 01:21:00 PM 35.1797 -108.0256 260° West  Level FlightAware Approximate
Sat 01:22:00 PM 35.1621 -108.1461 260° West  Level FlightAware Approximate
Sat 01:23:00 PM 35.1443 -108.2667 260° West  Level FlightAware Approximate
Sat 01:24:00 PM 35.1264 -108.3871 260° West  Level FlightAware Approximate
Sat 01:25:00 PM 35.1084 -108.5076 260° West  Level FlightAware Approximate
Sat 01:26:00 PM 35.0903 -108.6279 260° West  Level FlightAware Approximate
Sat 01:27:00 PM 35.0720 -108.7482 260° West  Level FlightAware Approximate
Sat 01:28:00 PM 35.0402 -108.8637 248° West  Level FlightAware Approximate
Sat 01:29:00 PM 35.0028 -108.9771 248° West  Level FlightAware Approximate
Sat 01:30:00 PM 34.9652 -109.0904 248° West  Level FlightAware Approximate
Sat 01:31:00 PM 34.9276 -109.2036 248° West  Level FlightAware Approximate
Sat 01:32:00 PM 34.8898 -109.3167 248° West  Level FlightAware Approximate
Sat 01:33:00 PM 34.8519 -109.4297 248° West  Level FlightAware Approximate
Sat 01:34:00 PM 34.8140 -109.5425 248° West  Level FlightAware Approximate
Sat 01:35:00 PM 34.7751 -109.6549 245° Southwest  Level FlightAware Approximate
Sat 01:36:00 PM 34.7327 -109.7653 245° Southwest  Level FlightAware Approximate
Sat 01:37:00 PM 34.6904 -109.8757 246° West  Level FlightAware Approximate
Sat 01:38:00 PM 34.6488 -109.9865 245° Southwest  Level FlightAware Approximate
Sat 01:39:00 PM 34.6066 -110.0968 245° Southwest  Level FlightAware Approximate
Sat 01:40:00 PM 34.5642 -110.2070 245° Southwest  Level FlightAware Approximate
Sat 01:41:00 PM 34.5218 -110.3171 245° Southwest  Level FlightAware Approximate
Sat 01:42:00 PM 34.4795 -110.4273 246° West  Level FlightAware Approximate
Sat 01:43:00 PM 34.4392 -110.5384 246° West  Level FlightAware Approximate
Sat 01:44:00 PM 34.3988 -110.6495 246° West  Level FlightAware Approximate
Sat 01:45:00 PM 34.3584 -110.7605 246° West  Level FlightAware Approximate
Sat 01:46:00 PM 34.2939 -110.8425 231° Southwest  Level FlightAware Approximate
Sat 01:47:00 PM 34.2308 -110.9367 228° Southwest  Level FlightAware Approximate
Sat 01:48:00 PM 34.1607 -111.0227 220° Southwest  Level FlightAware Approximate
Sat 01:49:00 PM 34.0878 -111.1052 228° Southwest  Level FlightAware Approximate
Sat 01:50:00 PM 34.0207 -111.1949 228° Southwest  Level FlightAware Approximate
Sat 01:51:00 PM 33.9536 -111.2845 228° Southwest  Level FlightAware Approximate
Sat 01:52:00 PM 33.8863 -111.3739 228° Southwest  Level FlightAware Approximate
Sat 01:53:00 PM 33.8301 -111.4731 239° Southwest  Level FlightAware Approximate
Sat 01:54:00 PM 33.7785 -111.5764 239° Southwest  Level FlightAware Approximate
Sat 01:55:00 PM 33.7269 -111.6796 239° Southwest  Level FlightAware Approximate
Sat 01:56:00 PM 33.6731 -111.7811 237° Southwest  Level FlightAware Approximate
Sat 01:57:00 PM 33.6187 -111.8821 237° Southwest  Level FlightAware Approximate
Sat 01:58:00 PM 33.5607 -111.9787 239° Southwest  Level FlightAware Approximate
Sat 01:59:00 PM 33.5167 -112.0842 270° West  Level FlightAware Approximate
Sat 02:00:00 PM 33.5167 -112.2043 270° West  Level FlightAware Approximate
Sat 02:01:00 PM 33.5091 -112.2773 112° Southeast  Level FlightAware Approximate
Sat 02:02:00 PM 33.4740 -112.1700 103° East  Level FlightAware Approximate
Sat 02:03:00 PM 33.4430 -112.0575 116° Southeast  Level FlightAware Approximate
Sat 02:04:00 PM 33.4343 -112.0116 90° East  Level Estimated
Sat 02:05:00 PM 33.4343 -112.0116 90° East  Level Estimated
Sat 02:06:00 PM 33.4343 -112.0116 90° East  Level Estimated
Sat 02:07:00 PM 33.4343 -112.0116 90° East  Level Estimated
Sat 02:08:00 PM 33.4343 -112.0116 90° East  Level Estimated
Sat 02:09:00 PM 33.4343 -112.0116 90° East  Level Estimated
Sat 02:10:00 PM 33.4343 -112.0116 90° East  Level Estimated
Sat 02:11:00 PM 33.4343 -112.0116 90° East  Level Estimated
Sat 02:12:00 PM 33.4343 -112.0116 90° East  Level Estimated
Sat 02:13:00 PM 33.4343 -112.0116 90° East  Level Estimated
Sat 02:14:00 PM 33.4343 -112.0116 90° East  Level Estimated
Sat 02:15:00 PM 33.4343 -112.0116 90° East  Level Estimated

Login

Don't have an account? Register now (free) for customized features, flight alerts, and more!